Time;durP1;ratioP1;P1;durP2;ratioP2;P2;SDS_P1;SDS_P2;PMS_P1;PMS_P2;Temp;Humidity;BMP_temperature;BMP_pressure;BME280_temperature;BME280_humidity;BME280_pressure;Samples;Min_cycle;Max_cycle;Signal;HPM_P1;HPM_P2
2021/03/16 00:00:07;;;;;;;9.02;2.53;;;5.30;99.90;;;;;;5030632;28;20034;-75
2021/03/16 00:02:33;;;;;;;2.67;1.95;;;5.30;99.90;;;;;;5033172;28;20069;-74
2021/03/16 00:04:59;;;;;;;9.50;2.33;;;5.30;99.90;;;;;;5027311;28;20026;-74
2021/03/16 00:07:24;;;;;;;9.82;2.70;;;5.30;99.90;;;;;;5018830;28;20405;-75
2021/03/16 00:09:50;;;;;;;5.47;2.25;;;5.30;99.90;;;;;;5020414;28;20076;-74
2021/03/16 00:12:16;;;;;;;6.38;2.10;;;5.30;99.90;;;;;;5015625;28;20018;-74
2021/03/16 00:14:42;;;;;;;6.47;2.08;;;5.30;99.90;;;;;;5017905;28;20482;-72
2021/03/16 00:17:08;;;;;;;6.68;2.55;;;5.30;99.90;;;;;;5017913;28;20041;-73
2021/03/16 00:19:33;;;;;;;4.47;1.95;;;5.20;99.90;;;;;;5016761;28;20085;-74
2021/03/16 00:21:59;;;;;;;5.82;1.70;;;5.20;99.90;;;;;;5016925;28;20061;-75
2021/03/16 00:24:24;;;;;;;4.25;1.77;;;5.20;99.90;;;;;;5019599;28;20029;-76
2021/03/16 00:26:50;;;;;;;5.68;2.20;;;5.30;99.90;;;;;;5016909;28;20064;-72
2021/03/16 00:29:16;;;;;;;7.82;3.03;;;5.30;99.90;;;;;;5017224;28;20461;-72
2021/03/16 00:31:41;;;;;;;2.92;2.22;;;5.30;99.90;;;;;;5015680;28;20385;-72
2021/03/16 00:34:07;;;;;;;7.78;2.33;;;5.20;99.90;;;;;;5016075;28;20022;-71
2021/03/16 00:36:33;;;;;;;6.85;1.95;;;5.20;99.90;;;;;;5014347;28;20424;-74
2021/03/16 00:38:59;;;;;;;3.30;1.80;;;5.20;99.90;;;;;;5014004;28;20044;-71
2021/03/16 00:41:24;;;;;;;3.92;2.00;;;5.20;99.90;;;;;;5021226;28;20014;-72
2021/03/16 00:43:51;;;;;;;4.32;1.80;;;5.20;99.90;;;;;;5020205;28;20028;-73
2021/03/16 00:46:17;;;;;;;6.47;1.90;;;5.20;99.90;;;;;;5019918;28;20452;-72
2021/03/16 00:48:43;;;;;;;5.97;1.95;;;5.10;99.90;;;;;;5033099;28;20018;-72
2021/03/16 00:51:09;;;;;;;5.10;2.00;;;5.10;99.90;;;;;;5032585;28;20018;-71
2021/03/16 00:53:35;;;;;;;8.27;2.20;;;5.20;99.90;;;;;;5014003;28;20088;-71
2021/03/16 00:56:00;;;;;;;3.70;2.17;;;5.30;99.90;;;;;;5014168;28;20022;-72
2021/03/16 00:58:27;;;;;;;4.53;2.50;;;5.20;99.90;;;;;;5020588;28;20060;-73
2021/03/16 01:00:53;;;;;;;5.72;2.28;;;5.20;99.90;;;;;;5019248;28;20033;-72
2021/03/16 01:03:19;;;;;;;5.85;1.95;;;5.20;99.90;;;;;;5025470;28;20589;-71
2021/03/16 01:05:46;;;;;;;3.25;1.65;;;5.20;99.90;;;;;;5031912;28;20060;-72
2021/03/16 01:08:12;;;;;;;3.33;1.35;;;5.20;99.90;;;;;;5013646;28;20022;-73
2021/03/16 01:10:38;;;;;;;2.75;1.67;;;5.10;99.90;;;;;;5013482;28;20025;-72
2021/03/16 01:13:03;;;;;;;5.45;1.60;;;5.10;99.90;;;;;;5013891;28;20030;-72
2021/03/16 01:15:29;;;;;;;5.13;2.05;;;5.10;99.90;;;;;;5010908;28;20394;-72
2021/03/16 01:17:55;;;;;;;6.00;2.45;;;5.00;99.90;;;;;;4994936;28;20027;-72
2021/03/16 01:20:26;;;;;;;3.50;1.92;;;5.10;99.90;;;;;;5015584;28;20021;-72
2021/03/16 01:22:52;;;;;;;6.57;1.85;;;5.10;99.90;;;;;;5017945;28;20052;-72
2021/03/16 01:25:19;;;;;;;5.68;2.08;;;5.10;99.90;;;;;;5030886;28;20049;-74
2021/03/16 01:27:45;;;;;;;6.00;2.60;;;5.00;99.90;;;;;;5020462;28;20036;-71
2021/03/16 01:30:12;;;;;;;4.53;2.15;;;5.10;99.90;;;;;;5013108;28;20097;-71
2021/03/16 01:32:38;;;;;;;5.45;1.83;;;5.10;99.90;;;;;;5012681;28;20022;-71
2021/03/16 01:35:07;;;;;;;3.78;1.73;;;5.10;99.90;;;;;;5011582;28;20033;-71
2021/03/16 01:37:33;;;;;;;3.05;1.90;;;5.10;99.90;;;;;;5029382;28;20086;-71
2021/03/16 01:39:59;;;;;;;4.35;1.92;;;5.10;99.90;;;;;;5030650;28;20029;-71
2021/03/16 01:42:24;;;;;;;6.47;2.63;;;5.10;99.90;;;;;;5025382;28;20122;-71
2021/03/16 01:44:50;;;;;;;3.78;2.33;;;5.00;99.90;;;;;;5014521;28;20116;-71
2021/03/16 01:47:18;;;;;;;4.57;2.00;;;5.00;99.90;;;;;;5014218;28;20100;-70
2021/03/16 01:49:44;;;;;;;8.60;2.60;;;5.00;99.90;;;;;;5015098;28;20033;-71
2021/03/16 01:52:13;;;;;;;6.22;2.30;;;5.00;99.90;;;;;;5014502;28;20093;-72
2021/03/16 01:54:41;;;;;;;5.10;2.00;;;5.00;99.90;;;;;;5016467;28;20026;-72
2021/03/16 01:57:08;;;;;;;5.30;2.17;;;5.00;99.90;;;;;;5022530;28;20029;-71
2021/03/16 01:59:34;;;;;;;6.28;2.42;;;5.00;99.90;;;;;;5009611;28;20087;-70
2021/03/16 02:02:00;;;;;;;4.72;2.05;;;5.00;99.90;;;;;;5040670;28;20025;-71
2021/03/16 02:04:26;;;;;;;4.45;2.67;;;5.00;99.90;;;;;;5045129;28;20060;-72
2021/03/16 02:07:07;;;;;;;8.07;2.58;;;5.00;99.90;;;;;;5041880;28;20048;-71
2021/03/16 02:09:39;;;;;;;4.03;1.90;;;4.90;99.90;;;;;;5042549;28;20021;-72
2021/03/16 02:12:14;;;;;;;5.82;2.47;;;4.90;99.90;;;;;;5040531;28;20029;-71
2021/03/16 02:14:54;;;;;;;3.38;1.60;;;4.90;99.90;;;;;;5041059;28;20035;-71
2021/03/16 02:17:34;;;;;;;6.10;2.33;;;4.90;99.90;;;;;;5030165;28;20033;-71
2021/03/16 02:20:07;;;;;;;9.82;3.00;;;4.90;99.90;;;;;;5024305;28;20098;-71
2021/03/16 02:22:39;;;;;;;3.75;1.77;;;4.90;99.90;;;;;;5021875;28;20497;-70
2021/03/16 02:25:08;;;;;;;6.32;3.08;;;4.90;99.90;;;;;;5017265;28;20034;-71
2021/03/16 02:28:12;;;;;;;5.97;3.03;;;4.80;99.90;;;;;;5014865;28;20022;-71
2021/03/16 02:30:41;;;;;;;5.88;2.92;;;4.80;99.90;;;;;;5002667;28;20153;-70
2021/03/16 02:33:11;;;;;;;5.95;2.30;;;4.80;99.90;;;;;;5019555;28;20037;-71
2021/03/16 02:35:39;;;;;;;7.78;2.60;;;4.80;99.90;;;;;;5019917;28;20025;-71
2021/03/16 02:38:07;;;;;;;6.65;2.65;;;4.80;99.90;;;;;;5013924;28;20026;-70
2021/03/16 02:40:34;;;;;;;3.30;1.95;;;4.80;99.90;;;;;;5015416;28;20022;-71
2021/03/16 02:43:02;;;;;;;5.20;1.60;;;4.80;99.90;;;;;;5015794;28;20026;-71
2021/03/16 02:45:30;;;;;;;6.18;2.50;;;4.80;99.90;;;;;;5015530;28;20030;-71
2021/03/16 02:47:57;;;;;;;7.55;2.13;;;4.90;99.90;;;;;;5015137;28;20030;-71
2021/03/16 02:50:24;;;;;;;5.85;2.45;;;4.80;99.90;;;;;;5015357;28;20022;-70
2021/03/16 02:52:52;;;;;;;6.90;3.33;;;4.80;99.90;;;;;;5014882;28;20100;-71
2021/03/16 02:55:18;;;;;;;5.55;1.73;;;4.80;99.90;;;;;;5014994;28;20045;-72
2021/03/16 02:57:45;;;;;;;6.20;2.10;;;4.80;99.90;;;;;;5021500;28;20018;-72
2021/03/16 03:00:12;;;;;;;4.78;2.55;;;4.70;99.90;;;;;;5030037;28;20040;-71
2021/03/16 03:02:39;;;;;;;5.57;2.80;;;4.70;99.90;;;;;;5033948;28;20030;-70
2021/03/16 03:05:07;;;;;;;5.63;2.85;;;4.60;99.90;;;;;;5034607;28;20041;-71
2021/03/16 03:07:35;;;;;;;3.55;2.38;;;4.60;99.90;;;;;;5022515;28;20033;-73
2021/03/16 03:10:01;;;;;;;8.02;2.85;;;4.60;99.90;;;;;;5014585;28;20022;-72
2021/03/16 03:12:26;;;;;;;5.18;2.45;;;4.50;99.90;;;;;;5015630;28;20022;-71
2021/03/16 03:14:52;;;;;;;4.78;2.20;;;4.50;99.90;;;;;;5013849;28;20045;-71
2021/03/16 03:17:18;;;;;;;6.60;2.05;;;4.60;99.90;;;;;;5022902;28;20053;-71
2021/03/16 03:19:43;;;;;;;7.35;2.75;;;4.60;99.90;;;;;;5032794;28;20508;-72
2021/03/16 03:22:26;;;;;;;6.97;2.42;;;4.50;99.90;;;;;;5032740;28;20045;-71
2021/03/16 03:24:58;;;;;;;4.30;1.98;;;4.60;99.90;;;;;;5034170;28;20285;-72
2021/03/16 03:27:29;;;;;;;5.57;2.35;;;4.60;99.90;;;;;;5034019;28;20402;-70
2021/03/16 03:29:59;;;;;;;6.35;2.47;;;4.60;99.90;;;;;;5033969;28;20022;-70
2021/03/16 03:32:28;;;;;;;7.32;1.92;;;4.60;99.90;;;;;;5034031;28;20380;-71
2021/03/16 03:34:54;;;;;;;6.70;1.88;;;4.60;99.90;;;;;;5033805;28;20151;-70
2021/03/16 03:37:23;;;;;;;4.75;1.88;;;4.60;99.90;;;;;;5034010;28;20456;-70
2021/03/16 03:39:50;;;;;;;5.47;2.40;;;4.60;99.90;;;;;;5034227;28;20029;-72
2021/03/16 03:42:20;;;;;;;8.15;3.10;;;4.60;99.90;;;;;;5036467;28;20037;-70
2021/03/16 03:44:51;;;;;;;6.05;2.13;;;4.50;99.90;;;;;;5033834;28;20030;-70
2021/03/16 03:47:18;;;;;;;6.38;2.40;;;4.50;99.90;;;;;;5032713;28;20026;-69
2021/03/16 03:49:44;;;;;;;3.60;2.00;;;4.40;99.90;;;;;;5033534;28;20021;-69
2021/03/16 03:52:12;;;;;;;7.28;2.65;;;4.40;99.90;;;;;;5033183;28;20513;-71
2021/03/16 03:54:43;;;;;;;2.72;1.98;;;4.40;99.90;;;;;;5033570;28;20068;-71
2021/03/16 03:57:10;;;;;;;6.03;2.30;;;4.40;99.90;;;;;;5024267;28;20104;-70
2021/03/16 03:59:39;;;;;;;9.10;2.17;;;4.40;99.90;;;;;;5017592;28;20271;-71
2021/03/16 04:02:05;;;;;;;5.13;1.60;;;4.40;99.90;;;;;;5033418;28;20384;-71
2021/03/16 04:04:31;;;;;;;2.25;1.60;;;4.40;99.90;;;;;;5031584;28;20042;-71
2021/03/16 04:06:58;;;;;;;4.22;2.13;;;4.50;99.90;;;;;;5032813;28;20036;-72
2021/03/16 04:09:24;;;;;;;6.28;1.80;;;4.50;99.90;;;;;;5033271;28;20477;-71
2021/03/16 04:11:50;;;;;;;5.55;1.95;;;4.50;99.90;;;;;;5033314;28;20072;-70
2021/03/16 04:14:16;;;;;;;6.75;2.15;;;4.50;99.90;;;;;;5032482;28;20031;-72
2021/03/16 04:16:42;;;;;;;3.70;1.83;;;4.50;99.90;;;;;;5016887;28;20100;-71
2021/03/16 04:19:09;;;;;;;9.73;4.22;;;4.40;99.90;;;;;;5017226;28;20117;-70
2021/03/16 04:21:35;;;;;;;6.90;1.83;;;4.40;99.90;;;;;;5012968;28;20593;-72
2021/03/16 04:24:03;;;;;;;8.48;3.53;;;4.40;99.90;;;;;;5013055;28;20065;-73
2021/03/16 04:26:29;;;;;;;8.07;2.03;;;4.30;99.90;;;;;;5011781;28;20084;-72
2021/03/16 04:28:55;;;;;;;4.40;2.20;;;4.30;99.90;;;;;;5013363;28;20018;-72
2021/03/16 04:31:20;;;;;;;9.10;2.05;;;4.20;99.90;;;;;;5012948;28;20026;-70
2021/03/16 04:33:46;;;;;;;7.65;2.03;;;4.10;99.90;;;;;;5012692;28;20041;-71
2021/03/16 04:36:12;;;;;;;3.97;1.75;;;4.20;99.90;;;;;;5012458;28;20026;-71
2021/03/16 04:38:37;;;;;;;3.10;1.77;;;4.10;99.90;;;;;;5011807;28;20060;-71
2021/03/16 04:41:03;;;;;;;5.15;1.95;;;4.10;99.90;;;;;;5013024;28;20505;-72
2021/03/16 04:43:28;;;;;;;7.53;2.05;;;4.20;99.90;;;;;;4994926;28;20505;-72
2021/03/16 04:45:54;;;;;;;6.05;2.20;;;4.10;99.90;;;;;;5012770;28;20061;-70
2021/03/16 04:48:19;;;;;;;7.55;2.20;;;4.10;99.90;;;;;;5011531;28;20057;-71
2021/03/16 04:50:45;;;;;;;6.47;1.90;;;4.10;99.90;;;;;;5012465;28;20037;-71
2021/03/16 04:53:11;;;;;;;5.25;1.85;;;4.10;99.90;;;;;;5011303;28;20108;-74
2021/03/16 04:55:36;;;;;;;6.95;2.85;;;4.10;99.90;;;;;;5012849;28;20478;-70
2021/03/16 04:58:02;;;;;;;5.95;2.17;;;4.10;99.90;;;;;;5017323;28;20021;-70
2021/03/16 05:00:27;;;;;;;7.75;2.53;;;4.20;99.90;;;;;;5020810;28;20072;-70
2021/03/16 05:02:53;;;;;;;2.77;1.60;;;4.20;99.90;;;;;;5035606;23;20026;-75
2021/03/16 05:05:19;;;;;;;8.52;2.35;;;4.20;99.90;;;;;;5011057;28;20454;-72
2021/03/16 05:07:45;;;;;;;5.75;1.80;;;4.20;99.90;;;;;;5013092;28;20026;-73
2021/03/16 05:10:11;;;;;;;5.43;1.42;;;4.20;99.90;;;;;;5011368;28;20056;-72
2021/03/16 05:12:37;;;;;;;7.90;3.45;;;4.20;99.90;;;;;;5012431;28;20064;-73
2021/03/16 05:15:06;;;;;;;15.90;5.07;;;4.20;99.90;;;;;;5009085;28;20019;-73
2021/03/16 05:17:31;;;;;;;7.65;2.35;;;4.20;99.90;;;;;;5020622;28;20022;-73
2021/03/16 05:19:57;;;;;;;8.27;2.05;;;4.20;99.90;;;;;;5012222;28;20056;-72
2021/03/16 05:22:22;;;;;;;4.53;1.80;;;4.20;99.90;;;;;;5012550;28;20048;-73
2021/03/16 05:24:48;;;;;;;5.45;1.60;;;4.20;99.90;;;;;;5012772;28;20025;-73
2021/03/16 05:27:13;;;;;;;8.35;2.03;;;4.30;99.90;;;;;;5015547;28;20449;-73
2021/03/16 05:29:39;;;;;;;9.07;2.17;;;4.30;99.90;;;;;;5016919;28;20488;-73
2021/03/16 05:32:05;;;;;;;5.05;2.78;;;4.30;99.90;;;;;;5016671;28;20105;-73
2021/03/16 05:34:31;;;;;;;7.28;1.90;;;4.30;99.90;;;;;;5016143;28;20033;-73
2021/03/16 05:36:56;;;;;;;5.65;1.98;;;4.30;99.90;;;;;;5017526;28;20030;-72
2021/03/16 05:39:22;;;;;;;4.93;2.20;;;4.30;99.90;;;;;;5016587;28;20028;-72
2021/03/16 05:41:48;;;;;;;8.27;2.83;;;4.40;99.90;;;;;;5016230;28;20444;-73
2021/03/16 05:44:14;;;;;;;5.15;1.50;;;4.40;99.90;;;;;;5015687;28;20056;-74
2021/03/16 05:46:41;;;;;;;4.72;2.20;;;4.40;99.90;;;;;;5015539;28;20029;-72
2021/03/16 05:49:08;;;;;;;5.55;1.65;;;4.40;99.90;;;;;;5015938;28;20018;-73
2021/03/16 05:51:35;;;;;;;2.40;1.50;;;4.40;99.90;;;;;;5016033;28;20493;-74
2021/03/16 05:54:00;;;;;;;4.28;1.45;;;4.50;99.90;;;;;;5015601;28;20026;-72
2021/03/16 05:56:27;;;;;;;11.57;2.47;;;4.50;99.90;;;;;;5015738;28;20469;-74
2021/03/16 05:58:53;;;;;;;6.65;2.10;;;4.50;99.90;;;;;;5020027;28;20086;-74
2021/03/16 06:01:18;;;;;;;8.20;3.40;;;4.50;99.90;;;;;;5025868;28;20112;-76
2021/03/16 06:03:47;;;;;;;9.27;2.83;;;4.50;99.90;;;;;;5035186;28;20501;-74
2021/03/16 06:06:13;;;;;;;3.38;1.80;;;4.50;99.90;;;;;;5035429;28;20056;-72
2021/03/16 06:08:39;;;;;;;4.40;1.90;;;4.50;99.90;;;;;;5031452;28;20018;-73
2021/03/16 06:11:08;;;;;;;5.90;1.80;;;4.50;99.90;;;;;;5015321;28;20026;-72
2021/03/16 06:13:35;;;;;;;6.20;1.30;;;4.50;99.90;;;;;;5014168;28;20026;-73
2021/03/16 06:16:24;;;;;;;4.38;1.92;;;4.50;99.90;;;;;;5014419;28;20022;-72
2021/03/16 06:18:50;;;;;;;6.95;1.98;;;4.50;99.90;;;;;;5022858;28;20025;-72
2021/03/16 06:21:24;;;;;;;5.03;2.05;;;4.50;99.90;;;;;;5034929;28;20025;-74
2021/03/16 06:24:00;;;;;;;3.45;1.95;;;4.50;99.90;;;;;;5034851;28;20030;-73
2021/03/16 06:26:28;;;;;;;7.20;1.60;;;4.50;99.90;;;;;;5034399;28;20488;-73
2021/03/16 06:29:07;;;;;;;10.10;2.97;;;4.50;99.90;;;;;;5034802;28;20125;-73
2021/03/16 06:31:33;;;;;;;4.55;2.30;;;4.50;99.90;;;;;;5035046;28;20473;-74
2021/03/16 06:33:59;;;;;;;5.10;1.90;;;4.50;99.90;;;;;;5034638;28;20032;-73
2021/03/16 06:36:29;;;;;;;3.47;2.15;;;4.60;99.90;;;;;;5034610;28;20025;-73
2021/03/16 06:38:56;;;;;;;7.45;2.17;;;4.60;99.90;;;;;;5034523;28;20053;-73
2021/03/16 06:41:23;;;;;;;8.05;2.28;;;4.60;99.90;;;;;;5034739;28;20037;-73
2021/03/16 06:44:00;;;;;;;5.35;2.28;;;4.60;99.90;;;;;;5034003;28;20040;-72
2021/03/16 06:46:35;;;;;;;8.48;3.08;;;4.60;99.90;;;;;;5034832;28;20120;-72
2021/03/16 06:49:11;;;;;;;9.85;2.55;;;4.60;99.90;;;;;;5034789;28;20087;-72
2021/03/16 06:51:36;;;;;;;4.57;1.77;;;4.60;99.90;;;;;;5033183;28;20025;-73
2021/03/16 06:54:13;;;;;;;6.47;2.53;;;4.60;99.90;;;;;;5034931;28;20120;-73
2021/03/16 06:56:39;;;;;;;4.85;2.38;;;4.60;99.90;;;;;;5033021;28;20025;-72
2021/03/16 06:59:06;;;;;;;6.57;2.60;;;4.60;99.90;;;;;;5026309;28;20021;-72
2021/03/16 07:01:35;;;;;;;5.43;2.30;;;4.60;99.90;;;;;;5026033;28;20057;-73
2021/03/16 07:04:14;;;;;;;5.22;2.63;;;4.60;99.90;;;;;;5033733;28;20072;-71
2021/03/16 07:06:41;;;;;;;4.88;1.75;;;4.60;99.90;;;;;;5034141;28;20025;-75
2021/03/16 07:09:09;;;;;;;11.07;2.20;;;4.50;99.90;;;;;;5034643;28;20056;-73
2021/03/16 07:11:35;;;;;;;10.32;2.47;;;4.50;99.90;;;;;;5034544;28;20029;-74
2021/03/16 07:14:02;;;;;;;4.22;2.25;;;4.50;99.90;;;;;;5036945;28;20053;-73
2021/03/16 07:16:28;;;;;;;6.60;1.88;;;4.40;99.90;;;;;;5011324;28;20034;-71
2021/03/16 07:18:54;;;;;;;9.05;3.05;;;4.40;99.90;;;;;;5019550;28;20041;-72
2021/03/16 07:21:30;;;;;;;7.40;1.98;;;4.40;99.90;;;;;;5014688;28;20446;-72
2021/03/16 07:24:02;;;;;;;7.10;1.88;;;4.40;99.90;;;;;;5014166;28;20478;-73
2021/03/16 07:26:28;;;;;;;7.97;2.60;;;4.30;99.90;;;;;;5014062;28;20383;-72
2021/03/16 07:28:56;;;;;;;4.93;2.80;;;4.20;99.90;;;;;;5013920;28;20034;-72
2021/03/16 07:31:22;;;;;;;8.13;2.28;;;4.20;99.90;;;;;;5014432;28;20119;-72
2021/03/16 07:33:49;;;;;;;7.78;3.03;;;4.10;99.90;;;;;;5013616;28;20474;-72
2021/03/16 07:36:15;;;;;;;4.63;2.13;;;4.10;99.90;;;;;;5016154;28;20048;-73
2021/03/16 07:38:41;;;;;;;11.68;2.63;;;4.10;99.90;;;;;;5015692;28;20033;-73
2021/03/16 07:41:08;;;;;;;10.02;4.72;;;4.20;99.90;;;;;;5014443;28;20026;-72
2021/03/16 07:43:39;;;;;;;9.13;3.42;;;4.10;99.90;;;;;;5013478;28;20106;-73
2021/03/16 07:46:16;;;;;;;8.02;3.05;;;4.30;99.90;;;;;;5013767;28;20398;-74
2021/03/16 07:48:44;;;;;;;6.88;2.85;;;4.40;99.90;;;;;;5014317;28;20030;-73
2021/03/16 07:51:16;;;;;;;5.63;2.90;;;4.50;99.90;;;;;;5013396;28;20018;-73
2021/03/16 07:53:53;;;;;;;16.20;4.80;;;4.60;99.90;;;;;;5014988;28;20390;-74
2021/03/16 07:56:25;;;;;;;5.53;2.45;;;4.70;99.90;;;;;;5013251;28;20048;-73
2021/03/16 07:58:51;;;;;;;5.03;2.35;;;4.80;99.90;;;;;;5020591;28;20025;-72
2021/03/16 08:01:17;;;;;;;8.52;3.20;;;4.90;99.90;;;;;;5026092;28;20030;-72
2021/03/16 08:03:43;;;;;;;10.13;4.22;;;4.90;99.90;;;;;;5041940;28;20037;-73
2021/03/16 08:06:27;;;;;;;9.65;3.78;;;5.10;99.90;;;;;;5022238;28;20030;-71
2021/03/16 08:08:52;;;;;;;12.00;4.25;;;5.10;99.90;;;;;;5023174;28;20022;-73
2021/03/16 08:11:19;;;;;;;6.20;2.70;;;5.20;99.90;;;;;;5027087;28;20398;-73
2021/03/16 08:13:58;;;;;;;10.93;5.22;;;5.10;99.90;;;;;;5036063;28;20021;-73
2021/03/16 08:16:38;;;;;;;5.63;2.33;;;5.20;99.90;;;;;;5034296;28;20363;-73
2021/03/16 08:19:20;;;;;;;6.40;3.05;;;5.20;99.90;;;;;;5023245;28;20116;-72
2021/03/16 08:21:57;;;;;;;7.82;2.40;;;5.10;99.90;;;;;;4998208;28;20034;-72
2021/03/16 08:24:40;;;;;;;6.28;2.22;;;5.10;99.90;;;;;;5009478;28;20545;-73
2021/03/16 08:27:13;;;;;;;18.13;7.70;;;5.10;99.90;;;;;;5012351;28;20132;-73
2021/03/16 08:29:44;;;;;;;7.65;3.78;;;5.20;99.90;;;;;;5014178;28;20018;-73
2021/03/16 08:32:17;;;;;;;5.07;2.78;;;5.20;99.90;;;;;;5013793;28;20030;-74
2021/03/16 08:34:44;;;;;;;7.35;2.55;;;5.30;99.90;;;;;;5013429;28;20537;-73
2021/03/16 08:37:27;;;;;;;7.75;2.75;;;5.30;99.90;;;;;;4993785;28;20041;-72
2021/03/16 08:39:54;;;;;;;8.93;3.70;;;5.30;99.90;;;;;;4993458;28;20034;-73
2021/03/16 08:42:22;;;;;;;8.27;2.75;;;5.40;99.90;;;;;;4993820;28;20026;-72
2021/03/16 08:44:48;;;;;;;9.85;2.65;;;5.50;99.90;;;;;;4993677;28;20395;-73
2021/03/16 08:47:19;;;;;;;7.22;2.70;;;5.60;99.90;;;;;;4993965;28;20026;-72
2021/03/16 08:49:49;;;;;;;9.93;2.95;;;5.60;99.90;;;;;;4993341;28;20033;-72
2021/03/16 08:52:22;;;;;;;3.53;2.28;;;5.70;99.90;;;;;;4996374;28;20027;-74
2021/03/16 08:54:49;;;;;;;4.63;1.83;;;5.70;99.90;;;;;;4995975;28;20018;-73
2021/03/16 08:57:18;;;;;;;6.70;2.30;;;5.90;99.90;;;;;;4995365;28;20026;-73
2021/03/16 08:59:48;;;;;;;7.72;2.35;;;5.90;99.90;;;;;;5021876;28;20053;-73
2021/03/16 09:02:27;;;;;;;9.13;3.33;;;5.90;99.90;;;;;;5030305;28;20041;-73
2021/03/16 09:04:52;;;;;;;11.48;2.85;;;5.90;99.90;;;;;;5033514;28;20500;-72
2021/03/16 09:07:21;;;;;;;12.77;3.50;;;5.80;99.90;;;;;;5033232;28;20029;-73
2021/03/16 09:09:47;;;;;;;6.78;2.25;;;5.80;99.90;;;;;;5022405;28;20026;-73
2021/03/16 09:12:24;;;;;;;7.15;2.63;;;5.80;99.90;;;;;;5013593;28;20034;-73
2021/03/16 09:14:49;;;;;;;8.68;2.72;;;5.80;99.90;;;;;;5024659;28;20376;-73
2021/03/16 09:17:16;;;;;;;4.60;2.10;;;5.90;99.90;;;;;;5014871;28;20059;-73
2021/03/16 09:19:41;;;;;;;5.47;2.80;;;5.90;99.90;;;;;;5016846;28;20038;-74
2021/03/16 09:22:11;;;;;;;7.53;2.67;;;5.80;99.90;;;;;;5029181;28;20088;-73
2021/03/16 09:24:42;;;;;;;8.43;2.75;;;5.70;99.90;;;;;;5032591;28;20022;-73
2021/03/16 09:27:08;;;;;;;5.63;2.72;;;5.50;99.90;;;;;;5015326;28;20167;-72
2021/03/16 09:29:36;;;;;;;12.15;3.45;;;5.50;99.90;;;;;;5015350;28;20049;-72
2021/03/16 09:32:06;;;;;;;5.60;2.38;;;5.50;99.90;;;;;;5014495;28;20022;-73
2021/03/16 09:34:35;;;;;;;5.93;2.55;;;5.60;99.90;;;;;;5014149;28;20022;-73
2021/03/16 09:37:13;;;;;;;6.78;2.05;;;5.60;99.90;;;;;;5013803;28;20113;-73
2021/03/16 09:39:39;;;;;;;8.77;3.38;;;5.40;99.90;;;;;;5013109;28;20030;-74
2021/03/16 09:42:06;;;;;;;5.50;2.70;;;5.50;99.90;;;;;;5014486;28;20030;-73
2021/03/16 09:44:42;;;;;;;6.75;2.50;;;5.60;99.90;;;;;;5013184;28;20044;-73
2021/03/16 09:47:08;;;;;;;8.98;2.67;;;5.50;99.90;;;;;;5014141;28;20033;-71
2021/03/16 09:49:39;;;;;;;7.78;3.30;;;5.30;99.90;;;;;;5013110;28;20057;-74
2021/03/16 09:52:06;;;;;;;;;;;5.30;99.90;;;;;;5013129;28;20030;-72
2021/03/16 09:54:45;;;;;;;11.38;3.13;;;5.10;99.90;;;;;;5016534;28;19932;-73
2021/03/16 09:57:12;;;;;;;7.50;3.45;;;5.10;99.90;;;;;;5017781;28;20029;-73
2021/03/16 09:59:40;;;;;;;6.50;2.65;;;5.10;99.90;;;;;;5012895;28;20549;-73
2021/03/16 10:02:05;;;;;;;6.97;2.90;;;5.20;99.90;;;;;;5027783;28;20092;-76
2021/03/16 10:04:45;;;;;;;13.55;3.70;;;5.30;99.90;;;;;;5018822;28;20432;-73
2021/03/16 10:07:10;;;;;;;6.85;2.45;;;5.40;99.90;;;;;;5012241;28;20057;-72
2021/03/16 10:09:40;;;;;;;5.03;2.63;;;5.40;99.90;;;;;;5011793;28;20057;-74
2021/03/16 10:12:19;;;;;;;7.93;3.20;;;5.40;99.90;;;;;;5020495;28;20022;-72
2021/03/16 10:14:49;;;;;;;4.38;2.30;;;5.40;99.90;;;;;;4996160;28;20023;-73
2021/03/16 10:17:25;;;;;;;5.53;2.53;;;5.30;99.90;;;;;;5012926;28;20030;-73
2021/03/16 10:19:53;;;;;;;4.57;2.83;;;5.40;99.90;;;;;;5015721;28;20354;-73
2021/03/16 10:22:19;;;;;;;8.25;3.63;;;5.60;99.90;;;;;;5015675;28;20063;-74
2021/03/16 10:24:54;;;;;;;5.82;3.30;;;5.90;99.90;;;;;;5015809;28;20105;-74
2021/03/16 10:27:28;;;;;;;4.90;3.30;;;5.90;99.90;;;;;;5015617;28;20022;-73
2021/03/16 10:29:53;;;;;;;8.80;3.83;;;6.10;99.90;;;;;;5016523;28;20033;-73
2021/03/16 10:32:19;;;;;;;6.25;2.90;;;5.80;99.90;;;;;;5014979;28;20022;-72
2021/03/16 10:34:45;;;;;;;10.23;3.88;;;5.90;99.90;;;;;;5015094;28;20386;-73
2021/03/16 10:37:31;;;;;;;9.00;3.75;;;6.30;99.90;;;;;;5016014;28;20036;-75
2021/03/16 10:39:59;;;;;;;12.27;3.20;;;6.50;99.90;;;;;;5015655;28;20054;-74
2021/03/16 10:42:25;;;;;;;9.30;3.40;;;6.60;99.90;;;;;;5016252;28;20057;-74
2021/03/16 10:44:51;;;;;;;4.88;2.45;;;6.70;99.90;;;;;;5015101;28;20022;-73
2021/03/16 10:47:17;;;;;;;4.93;3.08;;;6.60;99.90;;;;;;5018608;28;20109;-74
2021/03/16 10:49:42;;;;;;;10.07;3.92;;;6.60;99.90;;;;;;5019829;28;20029;-74
2021/03/16 10:52:08;;;;;;;9.32;3.45;;;6.40;99.90;;;;;;5015731;28;20381;-73
2021/03/16 10:54:36;;;;;;;12.40;3.20;;;6.40;99.90;;;;;;5014620;28;20017;-73
2021/03/16 10:57:03;;;;;;;8.55;3.67;;;6.60;99.90;;;;;;5015126;28;20033;-73
2021/03/16 10:59:28;;;;;;;7.60;3.53;;;6.80;83.10;;;;;;5024662;28;20051;-73
2021/03/16 11:01:55;;;;;;;8.80;3.22;;;6.70;60.50;;;;;;5029772;28;20092;-73
2021/03/16 11:04:21;;;;;;;10.15;3.95;;;6.70;21.10;;;;;;5056100;23;20045;-73
2021/03/16 11:06:47;;;;;;;6.20;2.83;;;6.70;1.00;;;;;;5037381;28;20029;-73
2021/03/16 11:09:14;;;;;;;8.35;3.78;;;6.80;6.60;;;;;;5037529;28;20010;-73
2021/03/16 11:11:40;;;;;;;8.55;2.95;;;6.80;19.30;;;;;;5056076;28;20017;-73
2021/03/16 11:14:06;;;;;;;8.23;2.80;;;6.90;19.10;;;;;;5056663;28;20014;-74
2021/03/16 11:16:33;;;;;;;7.18;3.10;;;6.80;1.00;;;;;;5046162;28;20018;-72
2021/03/16 11:18:58;;;;;;;11.35;3.08;;;6.80;1.00;;;;;;5037163;28;20066;-72
2021/03/16 11:21:24;;;;;;;4.95;2.40;;;6.90;21.40;;;;;;5037850;28;20018;-73
2021/03/16 11:23:50;;;;;;;12.48;3.05;;;6.90;1.00;;;;;;5036680;28;20026;-72
2021/03/16 11:26:17;;;;;;;5.15;2.42;;;6.90;1.00;;;;;;5037419;28;20038;-72
2021/03/16 11:28:43;;;;;;;4.75;3.05;;;6.90;1.00;;;;;;5037090;28;20072;-73
2021/03/16 11:31:09;;;;;;;7.05;3.13;;;6.50;1.00;;;;;;5036377;28;20022;-73
2021/03/16 11:33:35;;;;;;;7.13;2.67;;;6.50;1.00;;;;;;5035019;28;20038;-74
2021/03/16 11:36:00;;;;;;;9.75;2.63;;;6.50;1.00;;;;;;5029922;28;20478;-72
2021/03/16 11:38:26;;;;;;;6.82;2.97;;;6.40;1.00;;;;;;5022080;28;20030;-72
2021/03/16 11:40:52;;;;;;;7.22;2.40;;;6.50;1.00;;;;;;5020603;28;20082;-73
2021/03/16 11:43:18;;;;;;;6.88;2.85;;;6.40;1.00;;;;;;5018681;28;20096;-74
2021/03/16 11:45:44;;;;;;;7.28;3.67;;;6.30;1.00;;;;;;5019295;28;20029;-73
2021/03/16 11:48:10;;;;;;;8.55;3.45;;;6.40;9.30;;;;;;5017864;28;20389;-72
2021/03/16 11:50:36;;;;;;;8.07;3.63;;;6.30;41.50;;;;;;5017294;28;20037;-72
2021/03/16 11:53:03;;;;;;;5.47;2.70;;;6.30;99.90;;;;;;5016796;28;20022;-70
2021/03/16 11:55:29;;;;;;;12.32;4.50;;;6.10;79.20;;;;;;5022347;28;20022;-73
2021/03/16 11:57:54;;;;;;;6.03;2.47;;;6.20;99.90;;;;;;5026184;28;20098;-73
2021/03/16 12:00:20;;;;;;;6.53;2.60;;;6.30;99.90;;;;;;5032493;28;20026;-72
2021/03/16 12:02:46;;;;;;;7.00;2.30;;;6.40;89.30;;;;;;5030537;28;20048;-71
2021/03/16 12:05:12;;;;;;;6.68;2.92;;;6.20;42.30;;;;;;5027171;28;20042;-73
2021/03/16 12:07:37;;;;;;;6.10;2.10;;;6.30;2.20;;;;;;5043311;28;20109;-75
2021/03/16 12:10:05;;;;;;;7.45;2.22;;;6.30;39.20;;;;;;5042261;28;20081;-73
2021/03/16 12:12:30;;;;;;;5.40;2.47;;;6.40;1.00;;;;;;5036374;28;20056;-74
2021/03/16 12:14:56;;;;;;;7.13;3.03;;;6.40;1.00;;;;;;5035735;28;20030;-73
2021/03/16 12:17:21;;;;;;;6.97;3.72;;;6.40;1.00;;;;;;5035813;28;20013;-72
2021/03/16 12:19:47;;;;;;;7.72;2.70;;;6.50;1.00;;;;;;5039541;28;20056;-72
2021/03/16 12:22:13;;;;;;;9.15;3.28;;;6.70;1.00;;;;;;5054869;28;20047;-73
2021/03/16 12:24:38;;;;;;;3.67;2.50;;;6.90;99.90;;;;;;5051008;28;20033;-74
2021/03/16 12:27:04;;;;;;;4.05;2.17;;;7.10;99.90;;;;;;5036605;28;20049;-74
2021/03/16 12:29:30;;;;;;;7.60;2.38;;;7.20;99.90;;;;;;5040084;28;20231;-74
2021/03/16 12:31:55;;;;;;;7.20;3.40;;;7.20;99.90;;;;;;5035838;28;20026;-75
2021/03/16 12:34:21;;;;;;;6.63;2.00;;;7.20;99.90;;;;;;5037765;28;20030;-73
2021/03/16 12:36:47;;;;;;;6.82;2.70;;;7.20;99.90;;;;;;5052716;28;20051;-73
2021/03/16 12:39:12;;;;;;;4.97;2.67;;;7.10;99.90;;;;;;5055964;28;20048;-73
2021/03/16 12:41:38;;;;;;;6.75;2.85;;;7.00;99.90;;;;;;5054491;28;20033;-72
2021/03/16 12:44:03;;;;;;;3.53;2.10;;;7.00;99.90;;;;;;5048806;28;20089;-73
2021/03/16 12:46:29;;;;;;;5.30;2.00;;;6.90;37.50;;;;;;5038127;28;20030;-73
2021/03/16 12:48:55;;;;;;;5.40;2.50;;;6.90;99.90;;;;;;5038499;28;20435;-72
2021/03/16 12:51:21;;;;;;;5.72;2.42;;;7.00;99.90;;;;;;5036489;28;20033;-72
2021/03/16 12:53:47;;;;;;;5.47;2.33;;;7.00;99.90;;;;;;5016359;28;20076;-73
2021/03/16 12:56:13;;;;;;;7.20;3.13;;;7.00;99.90;;;;;;5017537;28;20033;-73
2021/03/16 12:58:39;;;;;;;6.18;2.75;;;7.20;1.00;;;;;;5021854;28;20037;-74
2021/03/16 13:01:05;;;;;;;5.70;3.50;;;7.30;93.50;;;;;;5023448;28;20568;-74